Time;durP1;ratioP1;P1;durP2;ratioP2;P2;SDS_P1;SDS_P2;PMS_P1;PMS_P2;Temp;Humidity;BMP_temperature;BMP_pressure;BME280_temperature;BME280_humidity;BME280_pressure;Samples;Min_cycle;Max_cycle;Signal;HPM_P1;HPM_P2
2022/05/01 00:00:37;;;;;;;14.95;8.15;;;8.80;99.90;;;;;;5014794;28;20402;-65
2022/05/01 00:03:02;;;;;;;18.55;9.88;;;8.70;99.90;;;;;;5033025;28;20030;-65
2022/05/01 00:05:29;;;;;;;19.77;8.43;;;8.70;99.90;;;;;;5032616;28;20033;-65
2022/05/01 00:07:55;;;;;;;14.82;8.60;;;8.60;99.90;;;;;;5032558;28;20029;-65
2022/05/01 00:10:21;;;;;;;16.92;8.55;;;8.60;99.90;;;;;;5032539;28;20032;-65
2022/05/01 00:12:46;;;;;;;16.25;8.57;;;8.60;99.90;;;;;;5032633;28;20037;-65
2022/05/01 00:15:12;;;;;;;14.30;8.48;;;8.60;99.90;;;;;;5032615;28;20038;-65
2022/05/01 00:17:37;;;;;;;14.00;7.75;;;8.60;99.90;;;;;;5032706;28;20037;-65
2022/05/01 00:20:04;;;;;;;26.42;8.93;;;8.60;99.90;;;;;;5032516;28;20090;-65
2022/05/01 00:22:29;;;;;;;16.60;9.27;;;8.60;99.90;;;;;;5032364;28;20405;-65
2022/05/01 00:24:55;;;;;;;17.52;8.55;;;8.70;99.90;;;;;;5032254;28;20049;-65
2022/05/01 00:27:21;;;;;;;19.60;9.27;;;8.70;99.90;;;;;;5032355;28;20458;-65
2022/05/01 00:29:46;;;;;;;16.23;8.48;;;8.70;99.90;;;;;;5032342;28;20057;-65
2022/05/01 00:32:12;;;;;;;14.13;8.77;;;8.70;99.90;;;;;;5032250;28;20036;-67
2022/05/01 00:37:22;;;;;;;15.40;8.15;;;8.50;99.90;;;;;;5032353;28;20413;-65
2022/05/01 00:39:48;;;;;;;14.45;8.35;;;8.50;99.90;;;;;;5032178;28;20100;-65
2022/05/01 00:42:17;;;;;;;14.38;8.25;;;8.40;99.90;;;;;;5014517;28;20072;-65
2022/05/01 00:44:42;;;;;;;17.55;9.27;;;8.40;99.90;;;;;;5032189;28;20042;-65
2022/05/01 00:47:08;;;;;;;14.88;8.35;;;8.40;99.90;;;;;;5032199;28;20113;-65
2022/05/01 00:49:34;;;;;;;17.52;8.63;;;8.40;99.90;;;;;;5032204;28;20096;-65
2022/05/01 00:52:11;;;;;;;14.75;8.43;;;8.40;99.90;;;;;;5031937;28;20079;-65
2022/05/01 00:54:42;;;;;;;17.15;9.13;;;8.40;99.90;;;;;;5032209;28;20025;-65
2022/05/01 00:57:08;;;;;;;15.10;8.75;;;8.30;99.90;;;;;;5014290;28;20505;-65
2022/05/01 00:59:36;;;;;;;12.57;8.30;;;8.40;99.90;;;;;;5031933;28;20137;-65
2022/05/01 01:02:02;;;;;;;16.23;8.77;;;8.40;99.90;;;;;;5032028;28;20045;-63
2022/05/01 01:04:28;;;;;;;15.93;9.00;;;8.30;99.90;;;;;;5031899;28;20087;-63
2022/05/01 01:06:53;;;;;;;15.55;8.38;;;8.30;99.90;;;;;;5032331;28;20057;-63
2022/05/01 01:09:19;;;;;;;18.38;8.55;;;8.30;99.90;;;;;;5018158;28;20548;-63
2022/05/01 01:11:45;;;;;;;16.35;8.95;;;8.30;99.90;;;;;;5035899;28;20033;-63
2022/05/01 01:14:12;;;;;;;20.10;8.50;;;8.30;99.90;;;;;;5035723;28;20096;-63
2022/05/01 01:16:39;;;;;;;18.13;9.05;;;8.30;99.90;;;;;;5035795;28;20029;-63
2022/05/01 01:19:07;;;;;;;17.58;8.30;;;8.30;99.90;;;;;;5035759;28;20444;-62
2022/05/01 01:21:34;;;;;;;14.80;8.48;;;8.30;99.90;;;;;;5035657;28;20470;-63
2022/05/01 01:24:03;;;;;;;23.38;9.15;;;8.30;99.90;;;;;;5035635;28;20030;-62
2022/05/01 01:26:29;;;;;;;19.38;9.77;;;8.30;99.90;;;;;;5035478;28;20498;-65
2022/05/01 01:28:57;;;;;;;17.02;9.25;;;8.30;99.90;;;;;;5035397;28;20037;-65
2022/05/01 01:31:42;;;;;;;19.75;10.77;;;8.30;99.90;;;;;;5035179;28;20032;-66
2022/05/01 01:34:14;;;;;;;18.73;10.02;;;8.30;99.90;;;;;;5035110;28;20095;-65
2022/05/01 01:36:41;;;;;;;16.80;9.57;;;8.30;99.90;;;;;;5017691;28;20038;-65
2022/05/01 01:39:07;;;;;;;17.95;9.00;;;8.30;99.90;;;;;;5035161;28;20029;-65
2022/05/01 01:41:36;;;;;;;16.48;9.00;;;8.30;99.90;;;;;;5035358;28;20036;-65
2022/05/01 01:44:02;;;;;;;16.92;9.80;;;8.30;99.90;;;;;;5035175;28;20596;-65
2022/05/01 01:46:27;;;;;;;20.42;10.45;;;8.30;99.90;;;;;;5035115;28;20105;-65
2022/05/01 01:48:53;;;;;;;20.10;10.50;;;8.30;99.90;;;;;;5035317;28;20100;-65
2022/05/01 01:51:20;;;;;;;18.58;9.65;;;8.30;99.90;;;;;;5035002;28;20029;-65
2022/05/01 01:53:46;;;;;;;22.17;10.68;;;8.30;99.90;;;;;;5035081;28;20616;-64
2022/05/01 01:56:12;;;;;;;24.60;10.98;;;8.20;99.90;;;;;;5034925;28;20405;-64
2022/05/01 01:58:40;;;;;;;23.90;10.50;;;8.20;99.90;;;;;;5034759;28;20038;-65
2022/05/01 02:01:08;;;;;;;20.45;9.55;;;8.10;99.90;;;;;;5034657;28;20048;-64
2022/05/01 02:03:34;;;;;;;20.05;10.80;;;8.10;99.90;;;;;;5034989;28;20037;-64
2022/05/01 02:06:00;;;;;;;20.65;9.73;;;8.10;99.90;;;;;;5034684;28;20038;-65
2022/05/01 02:08:26;;;;;;;18.45;10.95;;;8.00;99.90;;;;;;5034753;28;20088;-64
2022/05/01 02:10:52;;;;;;;20.23;10.15;;;8.00;99.90;;;;;;5034668;28;20037;-65
2022/05/01 02:13:18;;;;;;;25.42;11.50;;;8.00;99.90;;;;;;5034518;28;20026;-64
2022/05/01 02:15:44;;;;;;;21.25;11.60;;;7.90;99.90;;;;;;5034489;28;20515;-65
2022/05/01 02:18:11;;;;;;;23.58;11.95;;;7.90;99.90;;;;;;5034345;28;20043;-65
2022/05/01 02:23:24;;;;;;;25.25;10.45;;;8.00;99.90;;;;;;5034733;28;20095;-65
2022/05/01 02:25:50;;;;;;;24.27;11.43;;;8.00;99.90;;;;;;5034529;28;20064;-65
2022/05/01 02:28:16;;;;;;;24.27;11.82;;;8.10;99.90;;;;;;5034235;28;20042;-65
2022/05/01 02:30:42;;;;;;;23.67;11.45;;;8.10;99.90;;;;;;5034315;28;20393;-64
2022/05/01 02:33:08;;;;;;;28.58;12.15;;;8.20;99.90;;;;;;5034310;28;20037;-65
2022/05/01 02:35:35;;;;;;;25.27;12.88;;;8.20;99.90;;;;;;5034247;28;20041;-65
2022/05/01 02:38:03;;;;;;;24.97;12.33;;;8.20;99.90;;;;;;5034244;28;20045;-65
2022/05/01 02:40:30;;;;;;;22.65;11.45;;;8.30;99.90;;;;;;5034073;28;20255;-65
2022/05/01 02:42:58;;;;;;;23.45;11.70;;;8.40;99.90;;;;;;5034147;28;20492;-66
2022/05/01 02:45:24;;;;;;;21.20;11.23;;;8.40;99.90;;;;;;5034201;28;20045;-65
2022/05/01 02:47:50;;;;;;;24.77;12.20;;;8.50;99.90;;;;;;5034094;28;20037;-65
2022/05/01 02:50:15;;;;;;;21.30;10.98;;;8.40;99.90;;;;;;5033880;28;20407;-65
2022/05/01 02:52:41;;;;;;;24.13;10.93;;;8.40;99.90;;;;;;5033838;28;20091;-66
2022/05/01 02:55:07;;;;;;;20.35;10.48;;;8.40;99.90;;;;;;5033860;28;20034;-65
2022/05/01 02:57:33;;;;;;;23.08;11.95;;;8.40;99.90;;;;;;5033961;28;20040;-65
2022/05/01 02:59:59;;;;;;;25.95;11.30;;;8.40;99.90;;;;;;5033740;28;20050;-66
2022/05/01 03:02:24;;;;;;;21.98;10.95;;;8.40;99.90;;;;;;5016035;28;20060;-65
2022/05/01 03:04:51;;;;;;;24.70;11.48;;;8.40;99.90;;;;;;5033720;28;20121;-65
2022/05/01 03:07:17;;;;;;;19.48;10.73;;;8.40;99.90;;;;;;5033582;28;20417;-66
2022/05/01 03:09:42;;;;;;;22.73;11.27;;;8.40;99.90;;;;;;5033725;28;20026;-66
2022/05/01 03:12:08;;;;;;;18.08;9.63;;;8.40;99.90;;;;;;5033674;28;20040;-66
2022/05/01 03:14:34;;;;;;;23.05;9.73;;;8.40;99.90;;;;;;5033506;28;20120;-66
2022/05/01 03:17:00;;;;;;;18.77;11.23;;;8.40;99.90;;;;;;5015648;28;20132;-66
2022/05/01 03:22:15;;;;;;;17.42;9.95;;;8.40;99.90;;;;;;5033479;28;20128;-66
2022/05/01 03:24:42;;;;;;;20.25;10.40;;;8.40;99.90;;;;;;5033373;28;20064;-66
2022/05/01 03:27:09;;;;;;;20.37;10.23;;;8.30;99.90;;;;;;5033347;28;20037;-66
2022/05/01 03:29:36;;;;;;;17.35;9.70;;;8.40;99.90;;;;;;5015669;28;20349;-66
2022/05/01 03:32:07;;;;;;;19.88;9.48;;;8.40;99.90;;;;;;5033092;28;20037;-66
2022/05/01 03:34:32;;;;;;;17.88;9.43;;;8.40;99.90;;;;;;5033186;28;20049;-66
2022/05/01 03:36:58;;;;;;;17.17;9.32;;;8.40;99.90;;;;;;5033263;28;20041;-66
2022/05/01 03:39:24;;;;;;;16.98;9.15;;;8.40;99.90;;;;;;5015491;28;20410;-65
2022/05/01 03:41:50;;;;;;;16.02;8.63;;;8.40;99.90;;;;;;5033087;28;20040;-66
2022/05/01 03:44:15;;;;;;;22.67;11.07;;;8.30;99.90;;;;;;5032930;28;20172;-65
2022/05/01 03:46:41;;;;;;;19.98;10.00;;;8.30;99.90;;;;;;5032956;28;20025;-66
2022/05/01 03:49:07;;;;;;;19.98;10.57;;;8.40;99.90;;;;;;5032932;28;20393;-66
2022/05/01 03:51:33;;;;;;;21.85;10.60;;;8.40;99.90;;;;;;5033046;28;20472;-66
2022/05/01 03:54:03;;;;;;;19.33;9.57;;;8.40;99.90;;;;;;5033007;28;20433;-66
2022/05/01 03:56:30;;;;;;;19.38;9.15;;;8.40;99.90;;;;;;5032869;28;20049;-65
2022/05/01 03:58:57;;;;;;;14.05;7.65;;;8.50;99.90;;;;;;5032611;28;20037;-65
2022/05/01 04:01:24;;;;;;;18.17;8.30;;;8.50;99.90;;;;;;5032633;28;20119;-65
2022/05/01 04:03:49;;;;;;;13.90;7.85;;;8.60;99.90;;;;;;5032815;28;20109;-66
2022/05/01 04:06:15;;;;;;;15.40;8.05;;;8.60;99.90;;;;;;5032583;28;20557;-66
2022/05/01 04:08:42;;;;;;;13.80;6.85;;;8.60;99.90;;;;;;5032875;28;20033;-65
2022/05/01 04:11:08;;;;;;;11.10;7.18;;;8.60;99.90;;;;;;5032680;28;20030;-66
2022/05/01 04:13:35;;;;;;;9.30;6.22;;;8.60;99.90;;;;;;5032669;28;20029;-66
2022/05/01 04:16:02;;;;;;;9.43;6.00;;;8.70;99.90;;;;;;5032515;28;20076;-66
2022/05/01 04:18:27;;;;;;;10.20;5.85;;;8.80;99.90;;;;;;5032440;28;20042;-66
2022/05/01 04:20:53;;;;;;;11.27;5.78;;;8.80;99.90;;;;;;5032560;28;20045;-66
2022/05/01 04:23:19;;;;;;;12.80;6.97;;;8.80;99.90;;;;;;5032429;28;20104;-66
2022/05/01 04:25:45;;;;;;;12.40;6.35;;;8.80;99.90;;;;;;5032336;28;20076;-65
2022/05/01 04:28:11;;;;;;;9.68;5.70;;;8.80;99.90;;;;;;5032377;28;20061;-66
2022/05/01 04:30:38;;;;;;;9.70;5.93;;;8.80;99.90;;;;;;5032450;28;20048;-65
2022/05/01 04:33:13;;;;;;;12.18;6.50;;;8.70;99.90;;;;;;5032347;28;20045;-65
2022/05/01 04:35:43;;;;;;;9.73;5.97;;;8.70;99.90;;;;;;5032526;28;20439;-65
2022/05/01 04:38:14;;;;;;;14.98;7.28;;;8.60;99.90;;;;;;5032329;28;20076;-65
2022/05/01 04:40:53;;;;;;;10.88;6.30;;;8.60;99.90;;;;;;5032849;28;20350;-65
2022/05/01 04:43:21;;;;;;;14.20;6.60;;;8.60;99.90;;;;;;5016816;28;20042;-65
2022/05/01 04:45:49;;;;;;;9.18;6.00;;;8.60;99.90;;;;;;5036439;28;20037;-66
2022/05/01 04:48:17;;;;;;;10.70;6.05;;;8.60;99.90;;;;;;5036260;28;20496;-66
2022/05/01 04:50:43;;;;;;;10.77;6.00;;;8.60;99.90;;;;;;5036386;28;20030;-66
2022/05/01 04:53:11;;;;;;;9.75;5.65;;;8.60;99.90;;;;;;5036248;28;20095;-65
2022/05/01 04:55:39;;;;;;;12.15;6.72;;;8.60;99.90;;;;;;5036112;28;20030;-66
2022/05/01 04:58:05;;;;;;;10.25;5.90;;;8.50;99.90;;;;;;5036491;28;20453;-65
2022/05/01 05:00:32;;;;;;;10.52;5.68;;;8.50;99.90;;;;;;5035991;28;20402;-66
2022/05/01 05:02:57;;;;;;;13.15;7.05;;;8.50;99.90;;;;;;5036241;28;20453;-66
2022/05/01 05:05:25;;;;;;;12.95;6.75;;;8.50;99.90;;;;;;5036077;28;20045;-65
2022/05/01 05:07:52;;;;;;;11.20;6.15;;;8.50;99.90;;;;;;5035929;28;20100;-66
2022/05/01 05:10:17;;;;;;;10.02;6.40;;;8.60;99.90;;;;;;5035755;28;20172;-66
2022/05/01 05:12:45;;;;;;;13.38;6.75;;;8.60;99.90;;;;;;5035865;28;20397;-65
2022/05/01 05:15:14;;;;;;;13.90;6.57;;;8.60;99.90;;;;;;5035782;28;20029;-65
2022/05/01 05:17:39;;;;;;;10.00;5.40;;;8.70;99.90;;;;;;5035881;28;20025;-66
2022/05/01 05:20:07;;;;;;;11.38;6.30;;;8.80;99.90;;;;;;5035745;28;20037;-66
2022/05/01 05:22:33;;;;;;;11.27;6.13;;;8.90;99.90;;;;;;5035690;28;20041;-66
2022/05/01 05:24:59;;;;;;;12.13;6.32;;;9.00;99.90;;;;;;5035411;28;20573;-65
2022/05/01 05:27:28;;;;;;;13.43;5.88;;;9.20;99.90;;;;;;5035718;28;20104;-65
2022/05/01 05:29:55;;;;;;;11.88;7.53;;;9.40;99.90;;;;;;5035726;28;20025;-66
2022/05/01 05:32:22;;;;;;;12.23;7.03;;;9.50;99.90;;;;;;5035561;28;20025;-65
2022/05/01 05:34:48;;;;;;;14.63;7.88;;;9.60;99.90;;;;;;5035596;28;20041;-65
2022/05/01 05:37:18;;;;;;;12.23;6.72;;;9.60;99.90;;;;;;5035474;28;20045;-66
2022/05/01 05:39:44;;;;;;;12.85;7.30;;;9.70;99.90;;;;;;5035479;28;20069;-65
2022/05/01 05:42:11;;;;;;;14.48;8.25;;;9.80;99.90;;;;;;5035338;28;20030;-65
2022/05/01 05:44:40;;;;;;;13.35;7.47;;;9.80;99.90;;;;;;5035281;28;20033;-66
2022/05/01 05:47:06;;;;;;;13.88;7.50;;;9.90;99.90;;;;;;5035302;28;20109;-66
2022/05/01 05:49:32;;;;;;;13.90;7.97;;;9.90;99.90;;;;;;5035558;28;20116;-66
2022/05/01 05:51:58;;;;;;;14.10;8.43;;;9.90;99.90;;;;;;5034989;28;20388;-66
2022/05/01 05:54:24;;;;;;;14.40;7.53;;;9.80;99.90;;;;;;5034801;28;20033;-65
2022/05/01 05:56:50;;;;;;;13.38;8.57;;;9.90;99.90;;;;;;5034963;28;20532;-66
2022/05/01 05:59:16;;;;;;;17.50;8.25;;;9.90;99.90;;;;;;5040361;28;20312;-66
2022/05/01 06:01:42;;;;;;;16.00;8.15;;;10.00;99.90;;;;;;5054538;28;20041;-66
2022/05/01 06:04:07;;;;;;;14.27;7.90;;;10.10;99.90;;;;;;5054575;28;20037;-66
2022/05/01 06:06:34;;;;;;;16.00;9.38;;;10.00;99.90;;;;;;5054585;28;20123;-66
2022/05/01 06:09:00;;;;;;;14.93;8.32;;;10.00;99.90;;;;;;5048619;28;20041;-65
2022/05/01 06:11:26;;;;;;;15.40;9.05;;;10.10;99.90;;;;;;5035103;28;20100;-63
2022/05/01 06:13:52;;;;;;;14.95;8.68;;;10.20;99.90;;;;;;5034809;28;20482;-63
2022/05/01 06:16:18;;;;;;;16.38;8.57;;;10.20;99.90;;;;;;5034874;28;20103;-63
2022/05/01 06:18:44;;;;;;;17.58;9.00;;;10.30;99.90;;;;;;5033803;28;20030;-64
2022/05/01 06:21:10;;;;;;;13.93;8.02;;;10.50;99.90;;;;;;5034727;28;20516;-64
2022/05/01 06:23:35;;;;;;;14.55;7.65;;;10.60;99.90;;;;;;5034816;28;20025;-64
2022/05/01 06:26:04;;;;;;;15.88;8.23;;;10.80;99.90;;;;;;5034808;28;20041;-64
2022/05/01 06:28:30;;;;;;;12.75;8.05;;;10.90;99.90;;;;;;5034520;28;20045;-63
2022/05/01 06:30:57;;;;;;;14.15;7.47;;;11.10;99.90;;;;;;5034683;28;20026;-63
2022/05/01 06:33:23;;;;;;;12.83;7.60;;;11.20;99.90;;;;;;5034993;28;20465;-63
2022/05/01 06:35:52;;;;;;;13.18;7.55;;;11.40;99.90;;;;;;5034773;28;20251;-67
2022/05/01 06:38:18;;;;;;;12.48;7.00;;;11.50;99.90;;;;;;5034573;28;20041;-66
2022/05/01 06:40:44;;;;;;;13.35;7.15;;;11.60;99.90;;;;;;5034507;28;20036;-63
2022/05/01 06:43:11;;;;;;;15.90;8.85;;;11.70;99.90;;;;;;5034279;28;20400;-65
2022/05/01 06:45:37;;;;;;;13.73;7.95;;;11.80;99.90;;;;;;5034298;28;20041;-64
2022/05/01 06:48:03;;;;;;;11.65;7.03;;;11.80;99.90;;;;;;5034275;28;20052;-64
2022/05/01 06:50:31;;;;;;;13.45;7.53;;;12.00;99.90;;;;;;5032914;28;20486;-64
2022/05/01 06:52:57;;;;;;;;;;;12.10;99.90;;;;;;5034582;28;20033;-65
2022/05/01 06:55:25;;;;;;;12.15;7.03;;;12.20;99.90;;;;;;5016517;28;19909;-64
2022/05/01 06:57:52;;;;;;;10.98;6.47;;;12.40;99.90;;;;;;5034332;28;20064;-64
2022/05/01 07:00:19;;;;;;;9.30;6.75;;;12.40;99.90;;;;;;5034017;28;20099;-65
2022/05/01 07:02:49;;;;;;;10.40;6.35;;;12.40;99.90;;;;;;5034167;28;20111;-64
2022/05/01 07:05:15;;;;;;;10.80;6.63;;;12.30;99.90;;;;;;5033219;28;20034;-65
2022/05/01 07:07:41;;;;;;;13.02;6.43;;;12.50;99.90;;;;;;5034106;28;20070;-65
2022/05/01 07:10:08;;;;;;;11.57;5.50;;;12.80;99.90;;;;;;5033695;28;20068;-65
2022/05/01 07:12:34;;;;;;;12.83;6.07;;;12.90;99.30;;;;;;5034121;28;20494;-65
2022/05/01 07:15:01;;;;;;;9.38;5.93;;;12.80;99.90;;;;;;5032787;28;20033;-63
2022/05/01 07:17:27;;;;;;;10.32;5.95;;;12.80;99.60;;;;;;5033894;28;20501;-63
2022/05/01 07:19:53;;;;;;;10.13;6.00;;;12.90;99.30;;;;;;5033840;28;20033;-63
2022/05/01 07:22:18;;;;;;;8.60;5.20;;;13.10;99.00;;;;;;5033727;28;20037;-63
2022/05/01 07:24:44;;;;;;;10.18;6.22;;;13.10;96.50;;;;;;5033660;28;20033;-63
2022/05/01 07:27:10;;;;;;;11.57;5.95;;;13.20;96.60;;;;;;5015989;28;20029;-64
2022/05/01 07:29:36;;;;;;;12.07;5.90;;;12.90;96.70;;;;;;5033832;28;20033;-64
2022/05/01 07:32:02;;;;;;;9.57;5.10;;;12.90;99.10;;;;;;5032976;28;20053;-64
2022/05/01 07:34:27;;;;;;;10.77;4.20;;;12.80;97.20;;;;;;5031061;28;20422;-65
2022/05/01 07:36:54;;;;;;;7.50;4.50;;;12.80;97.20;;;;;;5033090;28;20389;-65
2022/05/01 07:39:20;;;;;;;8.88;5.15;;;12.80;95.50;;;;;;5033169;28;20490;-64
2022/05/01 07:41:45;;;;;;;8.60;4.78;;;12.80;98.20;;;;;;5033138;28;20025;-65
2022/05/01 07:44:11;;;;;;;11.20;5.22;;;13.00;97.40;;;;;;5050578;28;20029;-66
2022/05/01 07:46:38;;;;;;;8.73;5.32;;;13.00;98.10;;;;;;5053509;28;20365;-65
2022/05/01 07:49:05;;;;;;;11.30;5.25;;;13.10;96.30;;;;;;5053975;28;20061;-65
2022/05/01 07:51:30;;;;;;;10.95;5.60;;;12.90;97.40;;;;;;5053450;28;20160;-65
2022/05/01 07:53:58;;;;;;;9.90;6.57;;;13.10;97.90;;;;;;5051375;28;20107;-65
2022/05/01 07:56:25;;;;;;;7.18;4.85;;;13.20;94.10;;;;;;5052816;28;20043;-66
2022/05/01 07:58:50;;;;;;;7.67;4.97;;;13.00;96.20;;;;;;5053109;28;20037;-65
2022/05/01 08:01:16;;;;;;;9.57;4.75;;;13.10;93.00;;;;;;5052544;28;20270;-66
2022/05/01 08:06:26;;;;;;;9.38;5.43;;;13.40;94.20;;;;;;5052523;28;20508;-65
2022/05/01 08:08:51;;;;;;;8.35;4.63;;;13.50;92.80;;;;;;5052588;28;20033;-65
2022/05/01 08:11:17;;;;;;;7.13;4.97;;;13.40;91.00;;;;;;5052491;28;20091;-65
2022/05/01 08:13:43;;;;;;;8.77;5.28;;;13.40;92.70;;;;;;5052310;28;20100;-65
2022/05/01 08:16:08;;;;;;;11.38;4.63;;;13.40;93.10;;;;;;5034534;28;20039;-65
2022/05/01 08:21:21;;;;;;;7.38;3.83;;;13.80;93.30;;;;;;5051000;28;20044;-66
2022/05/01 08:23:47;;;;;;;8.32;5.13;;;14.10;92.80;;;;;;5030020;28;20045;-65
2022/05/01 08:26:13;;;;;;;7.65;4.40;;;14.40;94.20;;;;;;5033459;28;20036;-66
2022/05/01 08:28:41;;;;;;;7.60;4.60;;;14.60;91.90;;;;;;5052673;28;20021;-66
2022/05/01 08:31:07;;;;;;;7.63;4.65;;;14.70;91.90;;;;;;5052376;28;20072;-65
2022/05/01 08:33:34;;;;;;;5.10;3.90;;;14.80;88.90;;;;;;5052327;28;20043;-65
2022/05/01 08:36:02;;;;;;;6.50;3.80;;;14.70;91.50;;;;;;5052540;28;20400;-65
2022/05/01 08:38:28;;;;;;;7.25;4.68;;;14.80;90.20;;;;;;5034534;28;20571;-66
2022/05/01 08:40:54;;;;;;;7.32;3.90;;;14.90;89.50;;;;;;5046763;28;20029;-64
2022/05/01 08:43:22;;;;;;;7.47;4.40;;;14.90;89.60;;;;;;5041846;28;20033;-64
2022/05/01 08:45:54;;;;;;;4.20;3.45;;;15.10;87.00;;;;;;5028187;28;20132;-65
2022/05/01 08:48:29;;;;;;;6.45;3.80;;;15.10;89.40;;;;;;5049715;28;20113;-67
2022/05/01 08:50:55;;;;;;;5.28;3.85;;;15.20;84.70;;;;;;5052897;28;20061;-67
2022/05/01 08:53:23;;;;;;;5.20;3.35;;;15.00;86.60;;;;;;5052612;28;20391;-65
2022/05/01 08:55:50;;;;;;;5.97;4.05;;;15.10;84.10;;;;;;5052756;28;20079;-66
2022/05/01 08:58:16;;;;;;;7.07;4.53;;;15.00;86.00;;;;;;5052754;28;20048;-66
2022/05/01 09:00:42;;;;;;;6.15;4.32;;;15.10;86.80;;;;;;5052366;28;20045;-65
2022/05/01 09:03:07;;;;;;;8.57;4.07;;;15.20;86.10;;;;;;5052251;28;20041;-66
2022/05/01 09:05:33;;;;;;;9.18;5.28;;;14.80;87.40;;;;;;5052192;28;20389;-65
2022/05/01 09:07:59;;;;;;;7.30;4.78;;;14.70;88.10;;;;;;5052387;28;20496;-64
2022/05/01 09:10:31;;;;;;;9.15;4.82;;;14.50;88.60;;;;;;5051993;28;20029;-65
2022/05/01 09:12:57;;;;;;;10.50;4.40;;;14.50;90.10;;;;;;5052011;28;20167;-64
2022/05/01 09:15:31;;;;;;;9.88;5.03;;;14.50;90.10;;;;;;5034153;28;20095;-64
2022/05/01 09:18:11;;;;;;;8.50;5.07;;;14.40;87.90;;;;;;5052155;28;20037;-64
2022/05/01 09:20:57;;;;;;;8.18;4.57;;;14.40;89.80;;;;;;5052568;28;20045;-65
2022/05/01 09:23:43;;;;;;;8.70;4.60;;;14.40;90.40;;;;;;5051877;28;20129;-64
2022/05/01 09:26:10;;;;;;;14.70;4.70;;;14.20;89.80;;;;;;5034127;28;20040;-65
2022/05/01 09:28:46;;;;;;;10.15;4.45;;;14.10;90.00;;;;;;5052999;28;20025;-64
2022/05/01 09:31:11;;;;;;;7.40;4.22;;;14.10;87.70;;;;;;5056031;28;20036;-65
2022/05/01 09:33:37;;;;;;;9.65;4.93;;;14.20;90.00;;;;;;5054612;28;20033;-65
2022/05/01 09:36:03;;;;;;;7.07;4.68;;;14.40;90.30;;;;;;5055697;28;20397;-64
2022/05/01 09:38:29;;;;;;;7.47;5.10;;;14.60;87.70;;;;;;5055662;28;20087;-66
2022/05/01 09:40:58;;;;;;;7.60;4.78;;;14.80;87.90;;;;;;5055958;28;20033;-66
2022/05/01 09:43:43;;;;;;;8.82;5.85;;;15.10;89.40;;;;;;5055477;28;20087;-66
2022/05/01 09:46:17;;;;;;;7.85;4.60;;;15.40;87.70;;;;;;5055723;28;20033;-65
2022/05/01 09:48:59;;;;;;;7.85;5.45;;;15.50;88.10;;;;;;5055756;28;20413;-66
2022/05/01 09:51:26;;;;;;;11.70;5.43;;;15.50;88.70;;;;;;5055848;28;20107;-66
2022/05/01 09:53:52;;;;;;;11.93;6.57;;;15.60;87.40;;;;;;5055404;28;20037;-65
2022/05/01 09:56:18;;;;;;;9.02;4.88;;;15.80;87.50;;;;;;5055399;28;20362;-65
2022/05/01 09:58:44;;;;;;;8.70;6.00;;;15.80;86.00;;;;;;5055359;28;20045;-66
2022/05/01 10:01:15;;;;;;;7.63;5.20;;;15.60;85.10;;;;;;5055008;28;20048;-66
2022/05/01 10:03:46;;;;;;;10.02;6.00;;;15.60;90.10;;;;;;5037813;28;20048;-65
2022/05/01 10:06:16;;;;;;;8.70;5.10;;;15.60;89.20;;;;;;5055125;28;20057;-66
2022/05/01 10:08:44;;;;;;;8.80;5.30;;;15.60;90.20;;;;;;5055246;28;20045;-65
2022/05/01 10:11:14;;;;;;;9.02;5.47;;;15.30;88.90;;;;;;5055142;28;20068;-66
2022/05/01 10:13:40;;;;;;;6.53;4.32;;;15.10;89.30;;;;;;5055246;28;20037;-66
2022/05/01 10:16:10;;;;;;;8.38;4.13;;;14.90;88.80;;;;;;5053865;28;20033;-67
2022/05/01 10:18:36;;;;;;;10.70;5.00;;;14.80;90.70;;;;;;5054943;28;20516;-67
2022/05/01 10:21:04;;;;;;;8.57;5.38;;;14.70;90.70;;;;;;5054816;28;20456;-67
2022/05/01 10:23:30;;;;;;;9.55;5.15;;;14.60;91.00;;;;;;5054893;28;20040;-67
2022/05/01 10:26:08;;;;;;;8.98;5.18;;;14.80;90.90;;;;;;5054646;28;20087;-66
2022/05/01 10:29:07;;;;;;;7.63;5.00;;;15.20;90.10;;;;;;5054696;28;20037;-66
2022/05/01 10:32:21;;;;;;;8.43;4.93;;;15.20;90.60;;;;;;5054619;28;20123;-66
2022/05/01 10:35:08;;;;;;;9.27;5.43;;;15.30;89.50;;;;;;5017001;28;20041;-67
2022/05/01 10:38:11;;;;;;;7.40;4.88;;;15.60;90.50;;;;;;5054417;28;20037;-66
2022/05/01 10:40:50;;;;;;;6.82;4.47;;;15.40;89.60;;;;;;5053184;28;20508;-66
2022/05/01 10:43:26;;;;;;;9.93;5.45;;;15.40;86.80;;;;;;5053337;28;20052;-67
2022/05/01 10:45:53;;;;;;;10.18;5.07;;;15.40;90.20;;;;;;5054325;28;20086;-64
2022/05/01 10:48:39;;;;;;;8.35;4.65;;;15.70;87.40;;;;;;5054581;28;20444;-66
2022/05/01 10:51:38;;;;;;;8.38;4.70;;;15.50;88.40;;;;;;5054757;28;20033;-66
2022/05/01 10:54:10;;;;;;;8.98;5.35;;;15.40;87.50;;;;;;5054601;28;20541;-66
2022/05/01 10:56:46;;;;;;;8.20;4.32;;;15.40;90.30;;;;;;5053674;28;20128;-64
2022/05/01 10:59:34;;;;;;;7.88;4.25;;;15.40;90.00;;;;;;5035738;28;20128;-67
2022/05/01 11:02:04;;;;;;;9.18;4.97;;;15.50;89.80;;;;;;5053779;28;20037;-66
2022/05/01 11:04:41;;;;;;;8.50;5.13;;;15.50;87.70;;;;;;5053489;28;20087;-66
2022/05/01 11:07:12;;;;;;;7.18;4.40;;;15.20;88.50;;;;;;5053586;28;20452;-67
2022/05/01 11:09:39;;;;;;;8.95;5.00;;;15.00;89.40;;;;;;5053524;28;20021;-65
2022/05/01 11:12:09;;;;;;;6.53;4.47;;;14.80;87.80;;;;;;5053662;28;20041;-66
2022/05/01 11:14:39;;;;;;;6.50;4.25;;;15.00;90.10;;;;;;5052082;28;20128;-66
2022/05/01 11:17:06;;;;;;;7.95;4.65;;;15.30;90.60;;;;;;5053319;28;20060;-66
2022/05/01 11:19:45;;;;;;;5.82;3.95;;;15.70;87.70;;;;;;5053324;28;20025;-66
2022/05/01 11:22:14;;;;;;;5.28;3.28;;;16.10;84.30;;;;;;5053426;28;20035;-66
2022/05/01 11:24:42;;;;;;;6.95;3.95;;;15.90;83.40;;;;;;5053160;28;20450;-66
2022/05/01 11:27:11;;;;;;;9.05;4.40;;;15.70;83.00;;;;;;5053054;28;20091;-65
2022/05/01 11:29:37;;;;;;;5.95;3.88;;;15.60;84.10;;;;;;5052926;28;20029;-67
2022/05/01 11:32:19;;;;;;;5.78;3.63;;;15.50;85.30;;;;;;5053100;28;20029;-64
2022/05/01 11:34:50;;;;;;;7.85;4.35;;;15.70;82.50;;;;;;5053075;28;20095;-66
2022/05/01 11:37:17;;;;;;;7.88;5.03;;;16.00;87.10;;;;;;5052921;28;20029;-66
2022/05/01 11:39:45;;;;;;;10.15;4.78;;;16.20;85.60;;;;;;5053061;28;20033;-66
2022/05/01 11:42:27;;;;;;;7.15;4.20;;;16.40;86.80;;;;;;5052702;28;20481;-65
2022/05/01 11:44:54;;;;;;;8.13;6.25;;;16.50;84.10;;;;;;5052775;28;20052;-65
2022/05/01 11:47:22;;;;;;;9.90;5.00;;;16.30;82.50;;;;;;5052783;28;20416;-65
2022/05/01 11:49:48;;;;;;;6.75;4.97;;;16.20;84.00;;;;;;5052813;28;20033;-66
2022/05/01 11:52:15;;;;;;;7.60;4.95;;;16.30;84.70;;;;;;5052357;28;20039;-65
2022/05/01 11:54:42;;;;;;;8.52;4.38;;;16.60;83.00;;;;;;5052464;28;20036;-65
2022/05/01 12:02:39;;;;;;;6.97;4.43;;;17.10;81.70;;;;;;5052539;28;20123;-64
2022/05/01 12:05:05;;;;;;;7.15;4.40;;;17.30;75.60;;;;;;5052304;28;20069;-66
2022/05/01 12:07:31;;;;;;;6.00;3.75;;;17.40;81.10;;;;;;5052328;28;20092;-66
2022/05/01 12:09:58;;;;;;;4.90;3.28;;;18.10;74.50;;;;;;5052583;28;20040;-66
2022/05/01 12:12:28;;;;;;;6.28;2.80;;;17.80;75.60;;;;;;5051147;28;20044;-66
2022/05/01 12:14:54;;;;;;;3.72;2.75;;;18.00;74.40;;;;;;5052451;28;20075;-66
2022/05/01 12:17:21;;;;;;;4.35;3.10;;;18.50;71.00;;;;;;5052298;28;20044;-66
2022/05/01 12:19:49;;;;;;;5.53;3.13;;;18.60;69.40;;;;;;5052371;28;20025;-65
2022/05/01 12:22:15;;;;;;;;;;;18.30;65.50;;;;;;5053183;28;20766;-65
2022/05/01 12:24:43;;;;;;;6.47;3.43;;;18.10;62.80;;;;;;5052295;28;19909;-65
2022/05/01 12:27:10;;;;;;;3.78;2.80;;;17.60;64.80;;;;;;5052206;28;20021;-66
2022/05/01 12:29:37;;;;;;;4.97;3.38;;;17.40;69.90;;;;;;5052231;28;20099;-67
2022/05/01 12:32:08;;;;;;;4.53;3.35;;;17.20;67.60;;;;;;5052199;28;20028;-66
2022/05/01 12:34:40;;;;;;;4.30;3.50;;;17.10;68.10;;;;;;5034092;28;20539;-65
2022/05/01 12:37:11;;;;;;;7.93;3.65;;;16.40;66.50;;;;;;5052173;28;20049;-66
2022/05/01 12:39:37;;;;;;;4.93;3.53;;;16.00;68.00;;;;;;5052263;28;20033;-66
2022/05/01 12:45:16;;;;;;;5.15;3.33;;;15.50;69.40;;;;;;5052362;28;20461;-66
2022/05/01 12:47:50;;;;;;;5.97;3.50;;;15.70;75.30;;;;;;5034394;28;20040;-65
2022/05/01 12:50:18;;;;;;;6.32;4.43;;;15.80;69.40;;;;;;5052054;28;20079;-66
2022/05/01 12:52:46;;;;;;;6.18;3.08;;;15.70;69.00;;;;;;5052291;28;20493;-66
2022/05/01 12:55:20;;;;;;;8.05;3.53;;;15.60;74.30;;;;;;5052056;28;20075;-66
2022/05/01 12:57:52;;;;;;;4.78;3.00;;;15.70;71.60;;;;;;5052192;28;20436;-66
2022/05/01 13:00:44;;;;;;;7.75;3.90;;;15.80;71.20;;;;;;5051710;28;20128;-65
2022/05/01 13:03:21;;;;;;;5.38;3.70;;;15.70;73.10;;;;;;5052367;28;20040;-66
2022/05/01 13:05:57;;;;;;;;;;;15.90;74.90;;;;;;5056377;28;20037;-64
2022/05/01 13:08:24;;;;;;;8.82;4.47;;;15.70;74.50;;;;;;5037973;28;19905;-66
2022/05/01 13:11:08;;;;;;;7.43;4.00;;;15.60;76.10;;;;;;5055977;28;20128;-65
2022/05/01 13:13:54;;;;;;;7.10;4.75;;;15.80;74.70;;;;;;5053679;28;20394;-65